Warren, Texas
Current Conditions -  °F | °C
As of 7:35 AM on Wednesday 22 Oct 2014 (Local Time) from KJAS Reporting Station
Haze Haze  
Wind Chill: 55°   Ceiling: 700
Heat Index: 55°   Visibility: 1mi
Dew Point: 54°   Wind: 0mph
Humidity: 98%   Direction: NA
Pressure: 30.11"   Gusts: NA
Location:  30.62°N, 94.41°W
Report Text: KJAS 221235Z AUTO 00000KT 1SM BR VV007 13/12 A3011 RMK AO2 T01260123
Loading
Personal Weather Stations






























Interactive Weather Map New forecast layout! Learn more

10-Day Weather Forecast

Advertisements
Track Severe Weather on mobile